createdAt,value
2018-09-02T00:00:07.125Z,140.77
2018-09-02T00:02:35.512Z,138.83
2018-09-02T00:05:03.875Z,139.67
2018-09-02T00:07:32.236Z,134.83
2018-09-02T00:10:00.955Z,129.10
2018-09-02T00:12:29.292Z,124.90
2018-09-02T00:14:57.683Z,125.70
2018-09-02T00:17:26.072Z,121.93
2018-09-02T00:19:54.431Z,113.17
2018-09-02T00:22:22.729Z,108.93
2018-09-02T00:24:51.078Z,113.53
2018-09-02T00:27:19.434Z,112.17
2018-09-02T00:29:47.885Z,67.77
2018-09-02T00:32:16.292Z,58.37
2018-09-02T00:34:44.635Z,52.47
2018-09-02T00:37:12.950Z,62.27
2018-09-02T00:39:41.421Z,74.97
2018-09-02T00:42:09.777Z,97.50
2018-09-02T00:44:38.180Z,83.93
2018-09-02T00:47:06.543Z,86.93
2018-09-02T00:49:34.842Z,75.77
2018-09-02T00:52:03.131Z,73.23
2018-09-02T00:54:31.460Z,66.80
2018-09-02T00:56:59.864Z,86.53
2018-09-02T00:59:28.206Z,87.97
2018-09-02T01:01:56.535Z,91.93
2018-09-02T01:04:24.861Z,87.90
2018-09-02T01:06:53.165Z,89.30
2018-09-02T01:09:21.524Z,91.17
2018-09-02T01:11:49.865Z,86.00
2018-09-02T01:14:18.167Z,83.10
2018-09-02T01:16:46.543Z,71.53
2018-09-02T01:19:14.832Z,69.43
2018-09-02T01:21:43.150Z,68.50
2018-09-02T01:24:11.548Z,76.23
2018-09-02T01:26:39.921Z,76.47
2018-09-02T01:29:08.319Z,73.03
2018-09-02T01:31:36.716Z,61.10
2018-09-02T01:34:05.283Z,61.07
2018-09-02T01:36:33.576Z,59.10
2018-09-02T01:39:02.030Z,54.27
2018-09-02T01:41:30.335Z,56.03
2018-09-02T01:43:58.625Z,50.80
2018-09-02T01:46:26.922Z,45.63
2018-09-02T01:48:55.209Z,50.20
2018-09-02T01:51:23.472Z,45.43
2018-09-02T01:53:51.766Z,45.67
2018-09-02T01:56:20.075Z,49.57
2018-09-02T01:58:48.425Z,40.40
2018-09-02T02:01:16.712Z,38.83
2018-09-02T02:03:45.000Z,37.47
2018-09-02T02:06:13.294Z,37.93
2018-09-02T02:08:41.572Z,35.93
2018-09-02T02:11:09.859Z,36.60
2018-09-02T02:13:38.158Z,33.33
2018-09-02T02:16:06.801Z,32.23
2018-09-02T02:18:35.287Z,34.17
2018-09-02T02:21:03.675Z,30.17
2018-09-02T02:23:32.186Z,29.13
2018-09-02T02:26:00.496Z,29.60
2018-09-02T02:28:28.850Z,27.33
2018-09-02T02:30:57.139Z,28.63
2018-09-02T02:33:25.418Z,26.10
2018-09-02T02:35:53.745Z,27.00
2018-09-02T02:38:22.020Z,28.33
2018-09-02T02:40:50.286Z,23.10
2018-09-02T02:43:18.597Z,23.23
2018-09-02T02:45:46.893Z,24.80
2018-09-02T02:48:15.188Z,22.17
2018-09-02T02:50:43.481Z,21.97
2018-09-02T02:53:11.781Z,19.37
2018-09-02T02:55:40.075Z,19.07
2018-09-02T02:58:09.006Z,23.03
2018-09-02T03:00:37.294Z,18.67
2018-09-02T03:03:05.634Z,20.67
2018-09-02T03:05:33.910Z,18.43
2018-09-02T03:08:02.203Z,17.57
2018-09-02T03:10:30.467Z,16.27
2018-09-02T03:12:58.778Z,17.07
2018-09-02T03:15:27.092Z,15.50
2018-09-02T03:17:55.375Z,17.00
2018-09-02T03:20:24.203Z,14.53
2018-09-02T03:22:52.518Z,16.67
2018-09-02T03:25:20.819Z,14.37
2018-09-02T03:27:49.099Z,15.30
2018-09-02T03:30:17.376Z,14.33
2018-09-02T03:32:45.667Z,13.53
2018-09-02T03:35:13.939Z,15.40
2018-09-02T03:37:42.224Z,14.37
2018-09-02T03:40:10.579Z,11.87
2018-09-02T03:42:38.903Z,11.43
2018-09-02T03:45:07.170Z,12.50
2018-09-02T03:47:35.471Z,12.63
2018-09-02T03:50:04.007Z,10.97
2018-09-02T03:52:32.331Z,10.57
2018-09-02T03:55:00.610Z,11.23
2018-09-02T03:57:28.899Z,10.17
2018-09-02T03:59:57.163Z,11.07
2018-09-02T04:02:25.597Z,10.63
2018-09-02T04:04:53.858Z,10.57
2018-09-02T04:07:22.172Z,10.37
2018-09-02T04:09:50.454Z,9.90
2018-09-02T04:12:18.728Z,10.87
2018-09-02T04:14:47.200Z,8.33
2018-09-02T04:17:15.555Z,7.87
2018-09-02T04:19:44.072Z,8.13
2018-09-02T04:22:12.339Z,7.90
2018-09-02T04:24:40.752Z,9.07
2018-09-02T04:27:09.053Z,7.67
2018-09-02T04:29:37.342Z,8.47
2018-09-02T04:32:06.352Z,6.90
2018-09-02T04:34:34.690Z,8.00
2018-09-02T04:37:02.987Z,6.73
2018-09-02T04:39:31.261Z,7.13
2018-09-02T04:41:59.539Z,6.60
2018-09-02T04:44:27.812Z,5.80
2018-09-02T04:46:56.107Z,8.30
2018-09-02T04:49:24.648Z,6.67
2018-09-02T04:51:53.006Z,6.63
2018-09-02T04:54:21.438Z,7.17
2018-09-02T04:56:49.715Z,8.83
2018-09-02T04:59:17.987Z,6.50
2018-09-02T05:01:46.257Z,6.40
2018-09-02T05:04:14.542Z,4.30
2018-09-02T05:06:43.695Z,5.87
2018-09-02T05:09:11.964Z,7.37
2018-09-02T05:11:40.254Z,5.67
2018-09-02T05:14:08.825Z,4.80
2018-09-02T05:16:37.078Z,6.03
2018-09-02T05:19:05.403Z,5.47
2018-09-02T05:21:33.886Z,5.83
2018-09-02T05:24:02.263Z,4.40
2018-09-02T05:26:30.542Z,5.63
2018-09-02T05:28:58.922Z,5.23
2018-09-02T05:31:27.208Z,4.60
2018-09-02T05:33:55.480Z,4.37
2018-09-02T05:36:23.917Z,4.73
2018-09-02T05:38:52.319Z,4.17
2018-09-02T05:41:20.606Z,4.20
2018-09-02T05:43:49.263Z,3.60
2018-09-02T05:46:17.559Z,4.07
2018-09-02T05:48:46.445Z,3.93
2018-09-02T05:51:14.724Z,5.30
2018-09-02T05:53:43.136Z,4.93
2018-09-02T05:56:11.453Z,3.27
2018-09-02T05:58:39.732Z,4.37
2018-09-02T06:01:08.009Z,4.10
2018-09-02T06:03:36.288Z,3.80
2018-09-02T06:06:04.904Z,4.23
2018-09-02T06:08:33.248Z,4.67
2018-09-02T06:11:01.574Z,3.90
2018-09-02T06:13:29.875Z,3.80
2018-09-02T06:15:58.190Z,4.83
2018-09-02T06:18:26.463Z,3.07
2018-09-02T06:20:54.867Z,4.80
2018-09-02T06:23:23.197Z,3.80
2018-09-02T06:25:51.532Z,4.10
2018-09-02T06:28:19.940Z,3.50
2018-09-02T06:30:48.235Z,4.93
2018-09-02T06:33:16.624Z,2.87
2018-09-02T06:35:44.906Z,4.10
2018-09-02T06:38:13.239Z,3.10
2018-09-02T06:40:41.668Z,2.57
2018-09-02T06:43:09.934Z,3.57
2018-09-02T06:45:38.311Z,3.80
2018-09-02T06:48:06.715Z,2.90
2018-09-02T06:50:35.012Z,2.17
2018-09-02T06:53:03.329Z,3.03
2018-09-02T06:55:31.685Z,3.83
2018-09-02T06:58:00.017Z,5.03
2018-09-02T07:00:28.365Z,2.63
2018-09-02T07:02:56.747Z,3.97
2018-09-02T07:05:25.351Z,2.93
2018-09-02T07:07:53.654Z,2.97
2018-09-02T07:10:21.964Z,2.50
2018-09-02T07:12:50.376Z,5.30
2018-09-02T07:15:18.744Z,2.07
2018-09-02T07:17:47.028Z,3.27
2018-09-02T07:20:15.365Z,2.53
2018-09-02T07:22:43.853Z,3.00
2018-09-02T07:25:12.224Z,2.17
2018-09-02T07:27:40.523Z,4.27
2018-09-02T07:30:08.835Z,2.67
2018-09-02T07:32:37.600Z,1.83
2018-09-02T07:35:05.951Z,3.77
2018-09-02T07:37:34.237Z,2.83
2018-09-02T07:40:02.543Z,1.97
2018-09-02T07:42:30.820Z,3.07
2018-09-02T07:44:59.144Z,2.40
2018-09-02T07:47:27.447Z,2.70
2018-09-02T07:49:55.759Z,4.00
2018-09-02T07:52:24.320Z,2.47
2018-09-02T07:54:52.840Z,2.60
2018-09-02T07:57:21.136Z,2.77
2018-09-02T07:59:49.419Z,2.73
2018-09-02T08:02:17.759Z,2.53
2018-09-02T08:04:46.058Z,3.17
2018-09-02T08:07:14.434Z,3.10
2018-09-02T08:09:42.719Z,2.43
2018-09-02T08:12:11.053Z,3.07
2018-09-02T08:14:39.392Z,6.43
2018-09-02T08:17:07.711Z,11.73
2018-09-02T08:19:36.144Z,16.30
2018-09-02T08:22:04.450Z,15.80
2018-09-02T08:24:32.814Z,15.07
2018-09-02T08:27:01.115Z,15.47
2018-09-02T08:29:29.425Z,14.37
2018-09-02T08:31:57.771Z,14.47
2018-09-02T08:34:26.245Z,14.47
2018-09-02T08:36:54.568Z,17.60
2018-09-02T08:39:22.955Z,23.97
2018-09-02T08:41:51.287Z,29.60
2018-09-02T08:44:19.781Z,38.57
2018-09-02T08:46:48.087Z,36.03
2018-09-02T08:49:16.417Z,35.60
2018-09-02T08:51:44.859Z,35.63
2018-09-02T08:54:13.270Z,34.10
2018-09-02T08:56:41.724Z,33.10
2018-09-02T08:59:10.128Z,30.37
2018-09-02T09:01:38.482Z,41.63
2018-09-02T09:04:06.808Z,45.93
2018-09-02T09:06:35.238Z,44.30
2018-09-02T09:09:03.891Z,54.87
2018-09-02T09:11:32.078Z,58.60
2018-09-02T09:14:00.460Z,54.23
2018-09-02T09:16:28.957Z,54.17
2018-09-02T09:18:57.498Z,55.07
2018-09-02T09:21:25.829Z,51.70
2018-09-02T09:23:54.314Z,47.63
2018-09-02T09:26:22.712Z,45.63
2018-09-02T09:28:51.226Z,48.40
2018-09-02T09:31:19.564Z,52.57
2018-09-02T09:33:47.951Z,52.63
2018-09-02T09:36:16.291Z,50.20
2018-09-02T09:38:44.684Z,50.70
2018-09-02T09:41:13.218Z,51.30
2018-09-02T09:43:41.676Z,47.60
2018-09-02T09:46:10.033Z,45.70
2018-09-02T09:48:38.443Z,58.97
2018-09-02T09:51:07.181Z,66.83
2018-09-02T09:53:35.530Z,56.67
2018-09-02T09:56:03.909Z,62.57
2018-09-02T09:58:32.288Z,83.63
2018-09-02T10:01:00.691Z,94.87
2018-09-02T10:03:29.213Z,87.53
2018-09-02T10:05:57.586Z,82.60
2018-09-02T10:08:25.907Z,77.70
2018-09-02T10:10:54.252Z,99.63
2018-09-02T10:13:22.601Z,97.13
2018-09-02T10:15:50.985Z,97.37
2018-09-02T10:18:19.324Z,103.73
2018-09-02T10:20:47.658Z,97.60
2018-09-02T10:23:15.990Z,99.43
2018-09-02T10:25:44.323Z,123.33
2018-09-02T10:28:12.673Z,140.50
2018-09-02T10:30:40.962Z,124.73
2018-09-02T10:33:09.276Z,113.67
2018-09-02T10:35:37.554Z,90.00
2018-09-02T10:38:05.892Z,91.13
2018-09-02T10:40:34.160Z,78.70
2018-09-02T10:43:02.471Z,78.47
2018-09-02T10:45:30.806Z,70.63
2018-09-02T10:47:59.116Z,73.13
2018-09-02T10:50:27.405Z,68.47
2018-09-02T10:52:55.738Z,69.80
2018-09-02T10:55:24.081Z,68.33
2018-09-02T10:57:52.424Z,64.90
2018-09-02T11:00:20.780Z,59.27
2018-09-02T11:02:49.116Z,59.60
2018-09-02T11:05:17.380Z,61.40
2018-09-02T11:07:45.707Z,75.00
2018-09-02T11:10:13.999Z,106.17
2018-09-02T11:12:42.464Z,104.77
2018-09-02T11:15:10.791Z,94.90
2018-09-02T11:17:39.131Z,85.63
2018-09-02T11:20:07.674Z,75.73
2018-09-02T11:22:35.948Z,73.77
2018-09-02T11:25:04.413Z,73.57
2018-09-02T11:27:32.722Z,87.20
2018-09-02T11:30:01.015Z,99.63
2018-09-02T11:32:29.714Z,84.83
2018-09-02T11:34:58.019Z,88.90
2018-09-02T11:37:26.320Z,78.40
2018-09-02T11:39:54.701Z,73.10
2018-09-02T11:42:23.175Z,70.73
2018-09-02T11:44:51.534Z,67.47
2018-09-02T11:47:19.840Z,62.07
2018-09-02T11:49:48.127Z,60.90
2018-09-02T11:52:16.423Z,56.83
2018-09-02T11:54:44.745Z,52.70
2018-09-02T11:57:13.048Z,58.03
2018-09-02T11:59:41.468Z,51.73
2018-09-02T12:02:09.774Z,50.43
2018-09-02T12:04:38.124Z,51.53
2018-09-02T12:07:06.381Z,49.53
2018-09-02T12:09:34.668Z,45.20
2018-09-02T12:12:02.956Z,63.97
2018-09-02T12:14:31.446Z,58.13
2018-09-02T12:16:59.705Z,62.40
2018-09-02T12:19:28.001Z,58.10
2018-09-02T12:21:56.322Z,55.37
2018-09-02T12:24:24.619Z,46.87
2018-09-02T12:26:52.921Z,46.50
2018-09-02T12:29:21.222Z,44.60
2018-09-02T12:31:49.498Z,43.57
2018-09-02T12:34:17.771Z,42.00
2018-09-02T12:36:46.040Z,38.90
2018-09-02T12:39:14.365Z,39.13
2018-09-02T12:41:42.643Z,36.97
2018-09-02T12:44:10.950Z,33.77
2018-09-02T12:46:39.285Z,37.17
2018-09-02T12:49:07.608Z,28.13
2018-09-02T12:51:35.943Z,28.10
2018-09-02T12:54:05.154Z,28.47
2018-09-02T12:56:33.475Z,27.93
2018-09-02T12:59:01.746Z,26.40
2018-09-02T13:01:30.027Z,25.93
2018-09-02T13:03:58.318Z,24.07
2018-09-02T13:06:26.651Z,25.37
2018-09-02T13:08:54.971Z,22.83
2018-09-02T13:11:23.276Z,23.97
2018-09-02T13:13:51.621Z,25.50
2018-09-02T13:16:19.925Z,43.63
2018-09-02T13:18:48.249Z,47.90
2018-09-02T13:21:16.628Z,43.67
2018-09-02T13:23:44.934Z,39.40
2018-09-02T13:26:13.567Z,37.40
2018-09-02T13:28:41.924Z,34.77
2018-09-02T13:31:10.220Z,32.67
2018-09-02T13:33:38.594Z,34.30
2018-09-02T13:36:06.949Z,29.53
2018-09-02T13:38:35.349Z,28.23
2018-09-02T13:41:03.718Z,30.40
2018-09-02T13:43:32.022Z,27.67
2018-09-02T13:46:00.459Z,27.70
2018-09-02T13:48:28.860Z,33.73
2018-09-02T13:50:57.169Z,32.00
2018-09-02T13:53:25.633Z,29.73
2018-09-02T13:55:54.130Z,27.90
2018-09-02T13:58:22.432Z,30.77
2018-09-02T14:00:50.726Z,26.30
2018-09-02T14:03:19.052Z,27.93
2018-09-02T14:05:47.598Z,24.40
2018-09-02T14:08:16.058Z,22.87
2018-09-02T14:10:44.371Z,28.57
2018-09-02T14:13:12.706Z,42.10
2018-09-02T14:15:41.009Z,39.30
2018-09-02T14:18:09.384Z,34.03
2018-09-02T14:20:37.707Z,34.50
2018-09-02T14:23:06.051Z,33.17
2018-09-02T14:25:34.372Z,30.67
2018-09-02T14:28:02.714Z,29.90
2018-09-02T14:30:31.023Z,27.97
2018-09-02T14:32:59.327Z,23.63
2018-09-02T14:35:27.627Z,23.63
2018-09-02T14:37:55.917Z,22.63
2018-09-02T14:40:24.221Z,24.93
2018-09-02T14:42:52.507Z,26.40
2018-09-02T14:45:20.815Z,25.40
2018-09-02T14:47:49.123Z,25.03
2018-09-02T14:50:17.407Z,24.13
2018-09-02T14:52:45.738Z,23.33
2018-09-02T14:55:14.061Z,21.37
2018-09-02T14:57:42.350Z,18.53
2018-09-02T15:00:10.700Z,20.20
2018-09-02T15:02:38.996Z,20.37
2018-09-02T15:05:07.815Z,22.37
2018-09-02T15:07:36.136Z,15.97
2018-09-02T15:10:04.433Z,17.77
2018-09-02T15:12:32.732Z,20.60
2018-09-02T15:15:01.090Z,17.97
2018-09-02T15:17:29.482Z,16.20
2018-09-02T15:19:58.082Z,16.23
2018-09-02T15:22:26.484Z,37.10
2018-09-02T15:24:54.845Z,40.73
2018-09-02T15:27:23.309Z,27.23
2018-09-02T15:29:51.673Z,22.37
2018-09-02T15:32:20.030Z,16.93
2018-09-02T15:34:48.478Z,17.10
2018-09-02T15:37:16.791Z,20.80
2018-09-02T15:39:45.092Z,18.80
2018-09-02T15:42:13.446Z,17.60
2018-09-02T15:44:42.052Z,16.87
2018-09-02T15:47:10.937Z,18.63
2018-09-02T15:49:39.305Z,16.80
2018-09-02T15:52:07.633Z,16.03
2018-09-02T15:54:35.967Z,16.53
2018-09-02T15:57:04.729Z,13.73
2018-09-02T15:59:33.155Z,14.43
2018-09-02T16:02:01.646Z,16.67
2018-09-02T16:04:30.066Z,17.10
2018-09-02T16:06:58.394Z,14.93
2018-09-02T16:09:26.847Z,14.73
2018-09-02T16:11:55.182Z,14.40
2018-09-02T16:14:23.577Z,11.27
2018-09-02T16:16:51.948Z,8.93
2018-09-02T16:19:20.392Z,9.30
2018-09-02T16:21:48.693Z,9.93
2018-09-02T16:24:17.072Z,14.00
2018-09-02T16:26:45.480Z,8.20
2018-09-02T16:29:14.062Z,8.70
2018-09-02T16:31:42.450Z,7.53
2018-09-02T16:34:10.915Z,10.20
2018-09-02T16:36:39.235Z,7.67
2018-09-02T16:39:08.752Z,7.87
2018-09-02T16:41:37.286Z,8.00
2018-09-02T16:44:05.619Z,6.70
2018-09-02T16:46:34.002Z,8.40
2018-09-02T16:49:02.511Z,7.47
2018-09-02T16:51:30.823Z,8.17
2018-09-02T16:53:59.192Z,10.43
2018-09-02T16:56:27.544Z,7.90
2018-09-02T16:58:56.046Z,10.10
2018-09-02T17:01:24.454Z,12.93
2018-09-02T17:03:57.101Z,10.83
2018-09-02T17:06:25.509Z,10.40
2018-09-02T17:08:53.855Z,10.33
2018-09-02T17:11:22.235Z,10.60
2018-09-02T17:13:50.707Z,8.50
2018-09-02T17:16:19.077Z,8.57
2018-09-02T17:18:48.389Z,9.30
2018-09-02T17:21:16.942Z,9.03
2018-09-02T17:23:45.275Z,9.60
2018-09-02T17:26:13.847Z,11.07
2018-09-02T17:28:42.206Z,30.23
2018-09-02T17:31:10.527Z,30.67
2018-09-02T17:33:38.961Z,33.10
2018-09-02T17:36:07.389Z,30.90
2018-09-02T17:38:35.692Z,22.90
2018-09-02T17:41:04.048Z,25.07
2018-09-02T17:43:32.593Z,23.77
2018-09-02T17:46:01.188Z,18.73
2018-09-02T17:48:29.282Z,20.07
2018-09-02T17:50:57.597Z,16.33
2018-09-02T17:53:25.895Z,20.07
2018-09-02T17:55:54.584Z,17.27
2018-09-02T17:58:22.803Z,18.33
2018-09-02T18:00:52.841Z,14.00
2018-09-02T18:03:21.243Z,16.73
2018-09-02T18:05:49.795Z,12.10
2018-09-02T18:08:18.209Z,20.83
2018-09-02T18:10:46.528Z,19.77
2018-09-02T18:13:15.119Z,13.87
2018-09-02T18:15:43.442Z,14.97
2018-09-02T18:18:11.782Z,16.53
2018-09-02T18:20:40.288Z,18.87
2018-09-02T18:23:08.609Z,12.33
2018-09-02T18:25:37.303Z,15.53
2018-09-02T18:28:08.277Z,16.00
2018-09-02T18:30:36.928Z,12.87
2018-09-02T18:33:05.391Z,15.10
2018-09-02T18:35:33.984Z,13.17
2018-09-02T18:38:02.680Z,11.97
2018-09-02T18:40:31.059Z,11.30
2018-09-02T18:42:59.436Z,11.37
2018-09-02T18:45:28.151Z,10.73
2018-09-02T18:47:56.631Z,11.97
2018-09-02T18:50:25.494Z,11.60
2018-09-02T18:52:54.264Z,16.37
2018-09-02T18:55:23.075Z,12.10
2018-09-02T18:57:51.762Z,9.43
2018-09-02T19:00:20.268Z,9.10
2018-09-02T19:02:48.650Z,11.13
2018-09-02T19:05:17.409Z,9.93
2018-09-02T19:07:45.764Z,9.30
2018-09-02T19:10:14.119Z,10.53
2018-09-02T19:12:42.445Z,13.67
2018-09-02T19:15:10.776Z,29.47
2018-09-02T19:17:39.609Z,62.57
2018-09-02T19:20:13.032Z,28.33
2018-09-02T19:22:41.693Z,18.33
2018-09-02T19:25:10.372Z,19.73
2018-09-02T19:27:39.109Z,18.70
2018-09-02T19:30:07.925Z,24.17
2018-09-02T19:32:36.652Z,22.60
2018-09-02T19:35:05.208Z,81.67
2018-09-02T19:37:33.807Z,32.40
2018-09-02T19:40:02.503Z,41.90
2018-09-02T19:42:30.891Z,31.00
2018-09-02T19:44:59.210Z,33.43
2018-09-02T19:47:27.543Z,23.43
2018-09-02T19:49:55.846Z,23.03
2018-09-02T19:52:24.251Z,22.63
2018-09-02T19:54:52.697Z,21.20
2018-09-02T19:57:21.263Z,21.77
2018-09-02T19:59:49.640Z,19.07
2018-09-02T20:02:17.950Z,29.43
2018-09-02T20:04:46.448Z,28.50
2018-09-02T20:07:14.776Z,29.60
2018-09-02T20:09:43.104Z,32.63
2018-09-02T20:12:11.484Z,46.50
2018-09-02T20:14:39.883Z,66.87
2018-09-02T20:17:08.232Z,62.33
2018-09-02T20:19:36.791Z,44.90
2018-09-02T20:22:06.982Z,42.67
2018-09-02T20:24:35.335Z,43.03
2018-09-02T20:27:03.670Z,40.87
2018-09-02T20:29:32.048Z,41.67
2018-09-02T20:32:00.498Z,41.50
2018-09-02T20:34:28.814Z,40.03
2018-09-02T20:36:57.111Z,50.20
2018-09-02T20:39:25.482Z,48.37
2018-09-02T20:41:53.787Z,72.70
2018-09-02T20:44:22.184Z,71.93
2018-09-02T20:46:50.519Z,73.43
2018-09-02T20:49:18.831Z,72.87
2018-09-02T20:51:47.178Z,66.13
2018-09-02T20:54:15.511Z,63.63
2018-09-02T20:56:43.865Z,52.20
2018-09-02T20:59:12.246Z,44.83
2018-09-02T21:01:40.571Z,120.80
2018-09-02T21:04:08.992Z,88.67
2018-09-02T21:06:37.407Z,66.67
2018-09-02T21:09:08.511Z,45.10
2018-09-02T21:11:36.909Z,53.37
2018-09-02T21:14:05.423Z,55.17
2018-09-02T21:16:33.757Z,61.23
2018-09-02T21:19:02.254Z,81.50
2018-09-02T21:21:30.646Z,70.63
2018-09-02T21:23:59.228Z,75.43
2018-09-02T21:26:27.670Z,69.47
2018-09-02T21:28:56.133Z,71.60
2018-09-02T21:31:24.460Z,66.30
2018-09-02T21:33:52.815Z,57.93
2018-09-02T21:36:21.161Z,57.23
2018-09-02T21:38:49.480Z,51.30
2018-09-02T21:41:17.849Z,49.53
2018-09-02T21:43:46.280Z,53.40
2018-09-02T21:46:14.593Z,48.77
2018-09-02T21:48:42.960Z,48.97
2018-09-02T21:51:11.294Z,95.07
2018-09-02T21:53:40.135Z,74.93
2018-09-02T21:56:08.426Z,69.20
2018-09-02T21:58:36.764Z,75.13
2018-09-02T22:01:05.096Z,76.43
2018-09-02T22:03:33.403Z,65.57
2018-09-02T22:06:01.696Z,65.03
2018-09-02T22:08:30.039Z,58.40
2018-09-02T22:10:58.383Z,60.80
2018-09-02T22:13:26.694Z,60.63
2018-09-02T22:15:55.064Z,56.07
2018-09-02T22:18:23.448Z,54.73
2018-09-02T22:20:51.759Z,56.60
2018-09-02T22:23:20.039Z,51.50
2018-09-02T22:25:48.408Z,51.50
2018-09-02T22:28:16.769Z,53.27
2018-09-02T22:30:45.105Z,51.90
2018-09-02T22:33:15.287Z,48.63
2018-09-02T22:35:43.638Z,50.00
2018-09-02T22:38:12.564Z,50.57
2018-09-02T22:40:40.971Z,49.57
2018-09-02T22:43:09.260Z,47.80
2018-09-02T22:45:37.638Z,58.07
2018-09-02T22:48:06.016Z,60.00
2018-09-02T22:50:34.482Z,67.20
2018-09-02T22:53:02.867Z,79.30
2018-09-02T22:55:31.228Z,80.03
2018-09-02T22:57:59.833Z,80.30
2018-09-02T23:00:28.186Z,77.43
2018-09-02T23:02:56.502Z,89.83
2018-09-02T23:05:24.814Z,107.30
2018-09-02T23:07:53.255Z,137.27
2018-09-02T23:10:21.572Z,112.37
2018-09-02T23:12:49.936Z,88.77
2018-09-02T23:15:18.245Z,95.53
2018-09-02T23:17:46.582Z,92.00
2018-09-02T23:20:14.994Z,86.07
2018-09-02T23:22:43.435Z,81.73
2018-09-02T23:25:11.887Z,74.40
2018-09-02T23:27:40.279Z,65.73
2018-09-02T23:30:08.660Z,65.23
2018-09-02T23:32:37.004Z,67.43
2018-09-02T23:35:05.414Z,102.47
2018-09-02T23:37:33.807Z,158.10
2018-09-02T23:40:02.125Z,159.93
2018-09-02T23:42:30.506Z,94.50
2018-09-02T23:44:58.856Z,85.63
2018-09-02T23:47:27.320Z,78.37
2018-09-02T23:49:55.687Z,77.70
2018-09-02T23:52:23.993Z,73.63
2018-09-02T23:54:52.306Z,73.50
2018-09-02T23:57:20.616Z,70.83
2018-09-02T23:59:48.934Z,75.83
